Time;durP1;ratioP1;P1;durP2;ratioP2;P2;SDS_P1;SDS_P2;PMS_P1;PMS_P2;Temp;Humidity;BMP_temperature;BMP_pressure;BME280_temperature;BME280_humidity;BME280_pressure;Samples;Min_cycle;Max_cycle;Signal;HPM_P1;HPM_P2
2023/03/25 09:55:23;;;;;;;2.50;1.10;;;;;;;11.16;68.93;99905.59;5012528;27;97267;-77
2023/03/25 09:57:53;;;;;;;1.23;1.13;;;;;;;11.52;68.14;99909.72;5013790;27;98616;-77
2023/03/25 10:00:22;;;;;;;1.77;0.73;;;;;;;11.77;66.99;99913.25;5015281;27;97541;-78
2023/03/25 10:02:58;;;;;;;1.43;1.03;;;;;;;11.88;66.78;99889.06;5019575;27;98984;-79
2023/03/25 10:05:52;;;;;;;2.30;1.07;;;;;;;11.99;66.45;99913.72;5012452;27;97313;-78
2023/03/25 10:08:25;;;;;;;0.90;0.50;;;;;;;12.13;66.24;99933.13;5012852;27;97159;-79
2023/03/25 10:11:12;;;;;;;1.00;0.90;;;;;;;12.16;65.58;99934.84;5011855;27;99514;-79
2023/03/25 10:13:53;;;;;;;1.57;0.90;;;;;;;12.08;65.42;99942.94;5020586;27;99977;-79
2023/03/25 10:16:18;;;;;;;1.00;0.70;;;;;;;12.02;65.50;99918.22;5013718;27;97160;-79
2023/03/25 10:18:55;;;;;;;0.80;0.80;;;;;;;11.97;65.34;99898.97;5015168;27;97648;-79
2023/03/25 10:21:37;;;;;;;1.07;0.43;;;;;;;12.07;65.78;99896.59;5012782;27;97355;-79
2023/03/25 10:24:24;;;;;;;0.50;0.40;;;;;;;12.21;66.03;99889.91;5011294;27;97580;-80
2023/03/25 10:27:03;;;;;;;0.70;0.60;;;;;;;12.49;65.57;99891.00;5019610;27;97149;-80
2023/03/25 10:29:40;;;;;;;0.70;0.70;;;;;;;12.67;65.44;99897.75;5015601;27;96806;-78
2023/03/25 10:32:15;;;;;;;1.00;0.90;;;;;;;12.94;65.08;99899.34;5013411;27;100709;-79
2023/03/25 10:34:48;;;;;;;2.03;1.00;;;;;;;13.18;64.64;99896.47;5015900;27;98030;-79
2023/03/25 10:37:20;;;;;;;1.03;0.93;;;;;;;13.41;64.73;99888.53;5014919;27;96987;-80
2023/03/25 10:39:46;;;;;;;4.30;1.03;;;;;;;13.52;64.19;99891.81;5016924;27;96843;-79
2023/03/25 10:42:22;;;;;;;2.97;0.60;;;;;;;13.63;63.97;99904.69;5013679;27;99256;-78
2023/03/25 10:44:47;;;;;;;0.67;0.67;;;;;;;13.84;63.79;99896.50;5012804;27;98053;-79
2023/03/25 10:47:21;;;;;;;0.97;0.67;;;;;;;13.96;63.39;99890.22;5009866;27;98877;-79
2023/03/25 10:49:48;;;;;;;0.83;0.83;;;;;;;13.97;63.08;99899.25;5017036;27;97416;-79
2023/03/25 10:52:15;;;;;;;1.57;0.83;;;;;;;13.99;63.24;99871.81;5011593;27;100570;-79
2023/03/25 10:54:45;;;;;;;1.30;0.97;;;;;;;13.94;63.09;99878.19;5015497;27;97013;-79
2023/03/25 10:57:20;;;;;;;1.23;1.10;;;;;;;13.82;62.93;99882.47;5018460;27;96728;-77
2023/03/25 10:59:55;;;;;;;1.10;0.87;;;;;;;13.80;63.19;99880.25;5013436;27;97121;-79
2023/03/25 11:02:26;;;;;;;1.23;0.97;;;;;;;13.75;63.25;99910.75;5010719;27;98832;-79
2023/03/25 11:04:57;;;;;;;4.50;1.30;;;;;;;13.78;63.40;99874.50;5009539;27;97754;-79
2023/03/25 11:07:38;;;;;;;1.43;1.00;;;;;;;13.88;63.35;99872.03;5006399;28;97213;-78
2023/03/25 11:10:14;;;;;;;1.40;1.30;;;;;;;13.93;63.05;99871.19;4999020;28;96756;-78
2023/03/25 11:12:47;;;;;;;1.23;1.10;;;;;;;14.08;63.16;99876.91;4998672;28;98952;-79
2023/03/25 11:15:30;;;;;;;2.30;1.20;;;;;;;14.20;62.85;99859.53;5012625;27;99315;-78
2023/03/25 11:18:00;;;;;;;4.23;1.13;;;;;;;14.22;62.52;99856.97;4997667;28;97049;-78
2023/03/25 11:20:59;;;;;;;3.27;1.40;;;;;;;14.25;62.45;99855.91;5000638;28;99447;-79
2023/03/25 11:23:31;;;;;;;0.90;0.90;;;;;;;14.16;62.67;99859.13;5001682;28;97654;-79
2023/03/25 11:26:05;;;;;;;1.77;1.67;;;;;;;14.15;62.61;99862.44;4996834;28;99680;-78
2023/03/25 11:28:35;;;;;;;2.50;0.97;;;;;;;14.18;62.50;99850.28;4999489;28;97274;-79
2023/03/25 11:31:19;;;;;;;1.53;1.43;;;;;;;14.20;62.02;99856.00;5000312;28;97236;-79
2023/03/25 11:33:58;;;;;;;1.10;1.10;;;;;;;14.27;62.42;99864.41;4998468;28;97857;-80
2023/03/25 11:36:28;;;;;;;2.83;1.90;;;;;;;14.26;62.03;99851.13;5002060;28;97299;-79
2023/03/25 11:39:03;;;;;;;1.73;1.63;;;;;;;14.25;61.89;99855.16;4999176;28;97507;-79
2023/03/25 11:41:31;;;;;;;2.07;1.37;;;;;;;14.16;61.92;99842.53;4999855;28;97507;-78
2023/03/25 11:43:57;;;;;;;1.60;1.23;;;;;;;14.17;62.06;99843.28;5000997;28;97578;-78
2023/03/25 11:46:23;;;;;;;5.83;1.60;;;;;;;14.17;61.80;99852.31;5014039;27;100472;-79
2023/03/25 11:48:51;;;;;;;1.67;1.27;;;;;;;14.19;61.47;99854.53;4999164;28;97336;-79
2023/03/25 11:51:30;;;;;;;3.10;1.30;;;;;;;14.15;60.71;99849.31;5000406;28;96892;-79
2023/03/25 11:54:04;;;;;;;2.60;1.40;;;;;;;14.14;61.16;99860.94;4997797;28;100276;-79
2023/03/25 11:56:36;;;;;;;2.27;1.00;;;;;;;14.14;61.28;99866.47;4995161;28;100456;-79
2023/03/25 11:59:02;;;;;;;2.30;1.10;;;;;;;14.20;61.58;99869.84;5000123;28;96796;-80
2023/03/25 12:01:36;;;;;;;1.87;1.07;;;;;;;14.52;61.73;99859.34;5000458;28;97828;-78
2023/03/25 12:04:23;;;;;;;2.30;1.20;;;;;;;15.05;60.04;99850.78;5003212;28;100004;-79
2023/03/25 12:06:56;;;;;;;3.60;1.40;;;;;;;15.53;60.56;99844.47;4997759;28;99031;-79
2023/03/25 12:09:23;;;;;;;1.73;1.00;;;;;;;15.63;60.16;99864.84;4999131;28;97459;-79
2023/03/25 12:12:09;;;;;;;2.93;1.00;;;;;;;15.57;58.11;99850.41;5001356;28;97153;-79
2023/03/25 12:14:48;;;;;;;2.43;1.13;;;;;;;15.63;59.10;99854.53;4998831;28;100575;-81
2023/03/25 12:17:19;;;;;;;2.23;0.90;;;;;;;15.59;56.71;99842.28;5006167;28;100653;-80
2023/03/25 12:19:52;;;;;;;3.80;0.77;;;;;;;15.47;58.44;99843.88;4996692;28;97468;-80
2023/03/25 12:22:49;;;;;;;6.20;1.03;;;;;;;15.66;58.27;99847.13;5005891;28;96931;-80
2023/03/25 12:25:28;;;;;;;1.70;0.73;;;;;;;15.66;57.08;99838.81;5003818;28;98308;-79
2023/03/25 12:27:56;;;;;;;1.37;1.00;;;;;;;15.56;58.63;99827.50;4998471;28;97112;-79
2023/03/25 12:30:57;;;;;;;2.70;1.17;;;;;;;15.49;57.28;99813.56;5001874;28;97431;-79
2023/03/25 12:33:50;;;;;;;1.13;0.90;;;;;;;15.98;55.05;99811.41;4998449;28;97085;-80
2023/03/25 12:36:24;;;;;;;5.10;0.90;;;;;;;16.33;57.85;99816.13;4999291;28;98967;-78
2023/03/25 12:39:22;;;;;;;0.80;0.67;;;;;;;16.88;55.86;99816.38;4999863;28;98668;-79
2023/03/25 12:42:06;;;;;;;2.60;0.90;;;;;;;17.26;56.54;99802.44;5000922;28;97108;-79
2023/03/25 12:44:49;;;;;;;0.80;0.60;;;;;;;17.27;54.42;99806.69;5002852;28;97249;-80
2023/03/25 12:47:41;;;;;;;2.43;1.00;;;;;;;17.06;52.72;99803.38;5002154;28;98218;-80
2023/03/25 12:50:26;;;;;;;1.63;1.03;;;;;;;16.82;56.15;99829.69;5001260;28;97343;-80
2023/03/25 12:53:06;;;;;;;2.00;0.80;;;;;;;16.62;54.72;99810.44;4997429;28;97383;-80
2023/03/25 12:55:48;;;;;;;2.40;0.77;;;;;;;16.45;55.34;99803.34;5003893;28;97760;-80
2023/03/25 12:58:29;;;;;;;4.70;0.80;;;;;;;16.32;53.82;99811.84;5006279;28;100696;-80
2023/03/25 13:01:13;;;;;;;2.33;1.00;;;;;;;16.40;56.57;99818.16;5002187;28;96774;-80
2023/03/25 13:04:04;;;;;;;2.67;1.00;;;;;;;16.66;51.78;99811.56;4999714;28;96999;-79
2023/03/25 13:06:41;;;;;;;1.90;0.63;;;;;;;16.53;53.05;99816.53;5001310;28;96886;-79
2023/03/25 13:09:26;;;;;;;3.53;1.10;;;;;;;16.34;53.68;99814.81;4998390;28;99511;-79
2023/03/25 13:11:56;;;;;;;3.13;0.97;;;;;;;16.35;55.96;99821.13;4999284;28;97648;-80
2023/03/25 13:15:00;;;;;;;1.10;0.70;;;;;;;16.11;53.65;99825.13;4999004;28;96860;-81
2023/03/25 13:17:41;;;;;;;1.33;0.90;;;;;;;16.07;55.44;99810.88;5003197;28;96806;-80
2023/03/25 13:20:09;;;;;;;2.60;1.00;;;;;;;16.13;55.30;99828.09;5002499;28;97266;-80
2023/03/25 13:22:39;;;;;;;2.73;0.90;;;;;;;16.17;55.45;99828.47;5000233;28;96960;-78
2023/03/25 13:25:15;;;;;;;1.73;0.90;;;;;;;16.20;55.54;99827.38;4998045;28;97255;-78
2023/03/25 13:27:42;;;;;;;1.57;0.80;;;;;;;16.25;55.82;99818.13;5004285;28;97110;-80
2023/03/25 13:30:36;;;;;;;1.80;0.87;;;;;;;16.22;53.90;99822.00;4996175;28;97516;-80
2023/03/25 13:33:15;;;;;;;3.57;1.00;;;;;;;16.15;54.01;99827.53;4994688;28;99374;-80
2023/03/25 13:35:46;;;;;;;4.33;1.13;;;;;;;16.11;55.43;99829.94;5001249;28;97233;-80
2023/03/25 13:38:45;;;;;;;1.43;0.80;;;;;;;16.03;54.77;99841.00;4998725;28;96912;-79
2023/03/25 13:41:16;;;;;;;1.23;0.63;;;;;;;15.91;55.91;99837.06;4984943;28;96687;-80
2023/03/25 13:44:18;;;;;;;3.87;0.77;;;;;;;15.45;55.13;99836.09;4997319;28;97635;-81
2023/03/25 13:46:52;;;;;;;4.93;1.00;;;;;;;15.07;56.89;99837.84;5007831;28;96854;-79
2023/03/25 13:49:54;;;;;;;1.33;0.60;;;;;;;14.89;57.30;99836.81;5000617;28;97419;-80
2023/03/25 13:52:20;;;;;;;1.43;0.80;;;;;;;14.90;57.83;99834.75;4994937;28;97260;-80
2023/03/25 13:54:57;;;;;;;1.00;0.60;;;;;;;15.00;57.33;99827.47;4995776;28;97384;-79
2023/03/25 13:57:51;;;;;;;0.87;0.80;;;;;;;15.09;57.16;99837.31;5002821;28;97279;-78
2023/03/25 14:00:25;;;;;;;2.93;0.83;;;;;;;15.22;57.46;99832.44;5003610;28;97159;-79
2023/03/25 14:02:51;;;;;;;0.63;0.50;;;;;;;15.26;57.58;99826.53;4997916;28;97422;-79
2023/03/25 14:05:26;;;;;;;4.53;0.77;;;;;;;15.22;57.14;99820.59;4997710;28;99520;-79
2023/03/25 14:08:39;;;;;;;2.30;0.70;;;;;;;15.07;56.43;99824.00;4998594;28;97086;-79
2023/03/25 14:11:29;;;;;;;1.63;0.70;;;;;;;14.84;56.02;99826.59;5003847;28;96905;-80
2023/03/25 14:14:05;;;;;;;0.83;0.83;;;;;;;14.75;57.24;99821.53;4997211;28;100230;-78
2023/03/25 14:16:36;;;;;;;1.83;0.60;;;;;;;14.78;57.38;99820.47;4998204;28;97659;-78
2023/03/25 14:19:06;;;;;;;1.83;0.70;;;;;;;14.80;57.35;99831.00;4998561;28;97249;-79
2023/03/25 14:21:38;;;;;;;0.90;0.77;;;;;;;14.88;57.28;99813.16;4997739;28;96865;-79
2023/03/25 14:24:15;;;;;;;1.40;0.57;;;;;;;15.03;56.23;99810.50;5005741;28;99289;-80
2023/03/25 14:27:03;;;;;;;2.17;0.70;;;;;;;15.01;55.71;99818.59;5003328;28;100173;-80
2023/03/25 14:29:40;;;;;;;1.90;0.67;;;;;;;15.04;55.94;99811.25;4999191;28;97422;-81
2023/03/25 14:32:15;;;;;;;1.97;0.80;;;;;;;15.03;55.51;99832.66;5001249;28;96684;-80
2023/03/25 14:34:42;;;;;;;2.30;0.60;;;;;;;14.99;56.37;99848.88;4989461;28;100724;-79
2023/03/25 14:37:07;;;;;;;3.43;0.50;;;;;;;14.95;56.48;99840.19;4996199;28;97255;-79
2023/03/25 14:39:32;;;;;;;1.90;0.70;;;;;;;15.01;56.68;99838.00;4996577;28;97260;-80
2023/03/25 14:42:25;;;;;;;1.30;0.50;;;;;;;15.14;55.29;99848.25;5000203;28;98303;-80
2023/03/25 14:44:54;;;;;;;0.60;0.50;;;;;;;15.26;56.66;99843.16;5005574;28;101175;-78
2023/03/25 14:47:29;;;;;;;1.63;0.63;;;;;;;15.36;54.78;99835.81;4998251;28;97457;-79
2023/03/25 14:50:04;;;;;;;2.50;0.77;;;;;;;15.30;55.37;99843.56;5000765;28;97522;-79
2023/03/25 14:52:38;;;;;;;1.87;0.70;;;;;;;15.24;55.37;99826.34;5001152;28;97652;-79
2023/03/25 14:55:17;;;;;;;0.80;0.57;;;;;;;15.17;54.82;99832.56;4997994;28;97560;-77
2023/03/25 14:57:44;;;;;;;0.70;0.50;;;;;;;15.11;55.93;99837.53;4998979;28;98518;-78
2023/03/25 15:00:20;;;;;;;1.20;0.57;;;;;;;15.02;55.58;99830.44;5001281;28;96888;-80
2023/03/25 15:02:52;;;;;;;1.00;0.90;;;;;;;14.90;55.85;99829.97;5003242;28;97282;-78
2023/03/25 15:05:18;;;;;;;0.87;0.87;;;;;;;14.81;56.38;99827.69;5000731;28;97859;-78
2023/03/25 15:07:55;;;;;;;3.80;1.17;;;;;;;14.74;55.63;99828.34;5000637;28;97724;-79
2023/03/25 15:10:28;;;;;;;1.10;1.00;;;;;;;14.68;56.43;99847.13;4998726;28;96994;-80
2023/03/25 15:13:05;;;;;;;1.43;0.90;;;;;;;14.64;56.50;99834.91;5000763;28;96935;-79
2023/03/25 15:15:33;;;;;;;2.23;0.90;;;;;;;14.54;56.95;99854.03;5001088;28;97608;-79
2023/03/25 15:17:58;;;;;;;1.47;0.80;;;;;;;14.44;57.04;99846.72;4999861;28;98689;-79
2023/03/25 15:20:24;;;;;;;2.10;0.50;;;;;;;14.31;57.37;99844.00;4999322;28;96842;-79
2023/03/25 15:23:17;;;;;;;0.70;0.50;;;;;;;14.21;58.28;99844.44;4998059;28;97360;-79
2023/03/25 15:25:45;;;;;;;1.53;0.90;;;;;;;14.14;58.48;99877.53;5003311;28;100596;-79
2023/03/25 15:28:20;;;;;;;1.80;0.80;;;;;;;14.07;58.74;99851.25;4998817;28;96701;-79
2023/03/25 15:31:05;;;;;;;3.23;1.00;;;;;;;14.01;58.56;99847.13;4997065;28;97535;-79
2023/03/25 15:33:52;;;;;;;1.27;0.50;;;;;;;13.99;59.16;99839.38;4996545;28;97001;-79
2023/03/25 15:36:49;;;;;;;0.80;0.70;;;;;;;14.02;59.65;99843.09;5000286;28;97468;-81
2023/03/25 15:39:23;;;;;;;1.90;1.03;;;;;;;14.03;59.21;99833.50;4993803;28;100022;-79
2023/03/25 15:42:01;;;;;;;1.40;0.80;;;;;;;13.90;59.41;99823.22;5000637;28;97023;-79
2023/03/25 15:44:41;;;;;;;0.77;0.53;;;;;;;13.81;59.30;99831.22;5005453;28;97355;-78
2023/03/25 15:47:19;;;;;;;3.37;0.67;;;;;;;13.71;59.50;99835.69;4995336;28;100529;-79
2023/03/25 15:50:10;;;;;;;1.23;0.60;;;;;;;13.62;60.12;99836.88;4999998;28;99782;-79
2023/03/25 15:52:44;;;;;;;1.47;0.70;;;;;;;13.63;59.90;99834.88;5005577;28;96704;-80
2023/03/25 15:55:21;;;;;;;2.40;0.60;;;;;;;13.62;60.37;99831.34;4997410;28;97149;-79
2023/03/25 15:57:52;;;;;;;4.73;1.23;;;;;;;13.59;60.12;99837.94;5000713;28;98192;-80
2023/03/25 16:00:37;;;;;;;1.87;0.80;;;;;;;13.49;60.90;99840.41;5000532;28;100087;-78
2023/03/25 16:03:09;;;;;;;1.53;0.60;;;;;;;13.45;60.29;99845.47;5001744;28;97159;-79
2023/03/25 16:05:37;;;;;;;2.03;0.90;;;;;;;13.38;60.51;99842.63;4999527;28;97184;-79
2023/03/25 16:08:10;;;;;;;1.00;0.80;;;;;;;13.32;60.75;99851.00;5002338;28;97592;-79
2023/03/25 16:10:35;;;;;;;1.37;0.57;;;;;;;13.25;60.70;99862.72;4995725;28;97851;-80
2023/03/25 16:13:03;;;;;;;1.80;0.83;;;;;;;13.28;60.88;99850.56;4997719;28;97020;-78
2023/03/25 16:15:31;;;;;;;1.47;0.70;;;;;;;13.28;60.79;99866.44;4999700;28;101280;-80
2023/03/25 16:17:58;;;;;;;1.93;0.60;;;;;;;13.18;60.96;99844.00;5001483;28;97740;-80
2023/03/25 16:20:26;;;;;;;3.10;0.67;;;;;;;13.10;60.85;99845.91;4999203;28;96998;-79
2023/03/25 16:22:54;;;;;;;0.77;0.77;;;;;;;13.05;61.19;99834.94;5015966;27;97083;-79
2023/03/25 16:25:26;;;;;;;1.70;0.70;;;;;;;13.07;61.31;99840.69;4999573;28;96875;-79
2023/03/25 16:27:55;;;;;;;3.13;1.10;;;;;;;13.05;61.30;99855.03;5000108;28;97929;-79
2023/03/25 16:30:27;;;;;;;1.23;0.63;;;;;;;13.08;61.49;99850.47;4998915;28;98843;-79
2023/03/25 16:33:05;;;;;;;4.13;1.20;;;;;;;13.09;62.08;99821.56;5000427;28;96793;-79
2023/03/25 16:35:33;;;;;;;2.20;0.60;;;;;;;13.09;61.36;99799.47;5002316;28;97578;-78
2023/03/25 16:38:01;;;;;;;0.93;0.70;;;;;;;13.02;61.27;99820.13;5000070;28;97859;-80
2023/03/25 16:40:47;;;;;;;2.80;0.73;;;;;;;12.85;61.58;99807.91;5003813;28;100127;-79
2023/03/25 16:43:16;;;;;;;0.60;0.50;;;;;;;12.73;61.59;99805.34;5002004;28;96588;-80
2023/03/25 16:45:43;;;;;;;1.07;0.57;;;;;;;12.63;61.86;99790.47;4999179;28;97258;-79
2023/03/25 16:48:16;;;;;;;1.10;0.63;;;;;;;12.54;62.10;99779.06;5002462;28;96648;-80
2023/03/25 16:50:42;;;;;;;0.80;0.77;;;;;;;12.49;62.03;99797.19;4998859;28;100509;-79
2023/03/25 16:53:12;;;;;;;2.07;0.77;;;;;;;12.46;62.33;99772.69;4998821;28;97138;-79
2023/03/25 16:55:49;;;;;;;1.83;0.60;;;;;;;12.41;62.28;99779.78;4999944;28;97222;-80
2023/03/25 16:58:23;;;;;;;0.50;0.40;;;;;;;12.34;62.36;99765.88;5004793;28;99341;-80
2023/03/25 17:00:52;;;;;;;0.70;0.50;;;;;;;12.27;61.96;99774.75;4996938;28;101340;-79
2023/03/25 17:03:38;;;;;;;0.70;0.50;;;;;;;12.27;62.19;99772.00;4997127;28;97354;-80
2023/03/25 17:06:12;;;;;;;1.57;0.80;;;;;;;12.27;62.07;99786.53;4997907;28;97145;-79
2023/03/25 17:08:38;;;;;;;1.53;0.77;;;;;;;12.25;61.77;99799.34;4997870;28;99299;-79
2023/03/25 17:11:07;;;;;;;0.90;0.90;;;;;;;12.25;62.02;99802.13;4997464;28;100652;-79
2023/03/25 17:13:50;;;;;;;2.00;0.60;;;;;;;12.24;62.48;99812.41;4997099;28;96820;-78
2023/03/25 17:16:17;;;;;;;2.43;1.50;;;;;;;12.21;62.16;99845.78;5003857;28;96708;-80
2023/03/25 17:18:45;;;;;;;1.23;1.10;;;;;;;12.19;62.12;99853.84;4998642;28;97291;-79
2023/03/25 17:21:21;;;;;;;2.37;1.10;;;;;;;12.23;62.37;99871.56;4999390;28;97358;-79
2023/03/25 17:23:47;;;;;;;2.00;0.73;;;;;;;12.18;62.27;99866.13;5005018;28;97079;-79
2023/03/25 17:26:18;;;;;;;1.47;0.60;;;;;;;12.08;62.54;99873.28;4996940;28;97411;-78
2023/03/25 17:28:50;;;;;;;0.90;0.70;;;;;;;12.08;62.63;99876.06;4996623;28;97228;-79
2023/03/25 17:31:28;;;;;;;0.93;0.70;;;;;;;12.04;62.95;99881.84;4997248;28;97703;-79
2023/03/25 17:34:17;;;;;;;1.67;0.60;;;;;;;11.98;63.56;99859.88;4997494;28;97192;-79
2023/03/25 17:36:45;;;;;;;0.73;0.50;;;;;;;12.02;62.72;99862.31;4999520;28;97417;-80
2023/03/25 17:39:22;;;;;;;0.80;0.63;;;;;;;12.03;63.52;99864.56;4995636;28;97857;-79
2023/03/25 17:42:00;;;;;;;1.07;0.60;;;;;;;12.02;63.34;99865.84;4995424;28;96529;-79
2023/03/25 17:44:32;;;;;;;1.43;0.70;;;;;;;12.02;63.12;99862.31;4994341;28;97580;-79
2023/03/25 17:46:57;;;;;;;1.10;0.60;;;;;;;11.99;63.02;99875.13;4998058;28;97152;-78
2023/03/25 17:49:23;;;;;;;0.60;0.60;;;;;;;12.00;63.01;99865.63;4995614;28;97375;-79
2023/03/25 17:51:48;;;;;;;0.90;0.70;;;;;;;12.07;62.87;99885.56;5003644;28;97794;-81
2023/03/25 17:54:13;;;;;;;1.00;0.70;;;;;;;12.09;62.83;99875.53;4998350;28;97234;-79
2023/03/25 17:56:39;;;;;;;0.70;0.57;;;;;;;12.03;62.82;99867.31;4998359;28;97218;-80
2023/03/25 17:59:11;;;;;;;1.37;0.70;;;;;;;11.99;62.88;99868.91;4997850;28;97316;-79
2023/03/25 18:01:37;;;;;;;2.30;0.83;;;;;;;11.95;62.96;99877.44;4996894;28;96902;-80
2023/03/25 18:04:03;;;;;;;0.70;0.50;;;;;;;11.92;62.99;99902.56;4996706;28;97082;-80
2023/03/25 18:06:28;;;;;;;1.37;0.50;;;;;;;11.88;62.93;99888.31;4997419;28;97325;-80
2023/03/25 18:08:54;;;;;;;2.80;0.47;;;;;;;11.87;63.02;99893.09;5002586;28;104405;-80
2023/03/25 18:11:19;;;;;;;1.67;0.67;;;;;;;11.88;62.98;99885.56;4996263;28;100616;-79
2023/03/25 18:13:46;;;;;;;0.50;0.40;;;;;;;11.90;63.02;99891.31;4998928;28;96753;-79
2023/03/25 18:16:16;;;;;;;0.97;0.67;;;;;;;11.82;63.03;99891.13;4997933;28;97079;-80
2023/03/25 18:18:42;;;;;;;1.07;0.57;;;;;;;11.84;63.05;99890.59;4998938;28;100574;-79
2023/03/25 18:21:12;;;;;;;1.10;0.60;;;;;;;11.80;63.10;99901.19;5005326;28;100334;-78
2023/03/25 18:23:39;;;;;;;0.60;0.47;;;;;;;11.72;63.06;99898.28;5003500;28;97540;-78
2023/03/25 18:26:09;;;;;;;1.63;0.50;;;;;;;11.69;63.09;99899.31;5001910;28;96899;-79
2023/03/25 18:28:35;;;;;;;0.83;0.40;;;;;;;11.69;62.87;99901.31;5001429;28;100306;-80
2023/03/25 18:31:00;;;;;;;0.97;0.60;;;;;;;11.65;62.87;99895.31;4998715;28;107101;-80
2023/03/25 18:33:27;;;;;;;0.80;0.40;;;;;;;11.60;62.77;99907.16;5007062;28;97359;-81
2023/03/25 18:35:55;;;;;;;0.70;0.47;;;;;;;11.51;63.05;99913.00;4999121;28;99233;-79
2023/03/25 18:38:23;;;;;;;0.60;0.50;;;;;;;11.42;63.00;99907.84;5002102;28;97377;-81
2023/03/25 18:40:50;;;;;;;2.13;0.90;;;;;;;11.35;63.25;99916.66;4999591;28;97251;-80
2023/03/25 18:43:16;;;;;;;2.97;1.20;;;;;;;11.26;63.38;99895.72;5000425;28;97313;-81
2023/03/25 18:45:42;;;;;;;1.23;0.70;;;;;;;11.26;63.59;99903.97;4999697;28;96933;-80
2023/03/25 18:48:11;;;;;;;2.40;0.90;;;;;;;11.20;63.30;99906.75;4999971;28;97879;-79
2023/03/25 18:50:40;;;;;;;2.03;0.63;;;;;;;11.14;63.49;99892.31;5006854;28;100719;-79
2023/03/25 18:53:06;;;;;;;1.43;0.60;;;;;;;11.14;63.32;99899.81;4997078;28;97452;-79
2023/03/25 18:55:34;;;;;;;2.10;0.57;;;;;;;11.10;63.38;99900.09;5001376;28;96866;-78
2023/03/25 18:57:59;;;;;;;0.70;0.60;;;;;;;11.09;63.54;99900.63;5000309;28;97055;-78
2023/03/25 19:00:33;;;;;;;1.30;0.70;;;;;;;11.09;63.43;99890.38;4999494;28;97016;-78
2023/03/25 19:02:59;;;;;;;2.20;0.80;;;;;;;11.08;63.48;99910.13;5000346;28;97096;-81
2023/03/25 19:05:25;;;;;;;2.20;0.57;;;;;;;11.11;63.55;99909.13;4991423;28;97060;-78
2023/03/25 19:07:51;;;;;;;1.70;0.67;;;;;;;11.13;63.44;99896.34;4997754;28;100700;-79
2023/03/25 19:10:20;;;;;;;1.23;1.00;;;;;;;11.15;63.54;99931.59;5002527;28;99993;-79
2023/03/25 19:12:46;;;;;;;0.90;0.70;;;;;;;11.19;63.36;99918.31;4998488;28;96842;-77
2023/03/25 19:15:14;;;;;;;3.53;0.90;;;;;;;11.20;63.26;99928.06;4996255;28;97152;-78
2023/03/25 19:17:41;;;;;;;1.37;0.50;;;;;;;11.19;63.43;99926.56;4996153;28;97654;-78
2023/03/25 19:20:07;;;;;;;1.90;0.90;;;;;;;11.16;63.21;99916.59;5001245;28;97110;-79
2023/03/25 19:22:33;;;;;;;0.90;0.50;;;;;;;11.20;63.25;99952.84;5000854;28;97936;-78
2023/03/25 19:24:59;;;;;;;1.37;0.40;;;;;;;11.22;63.17;99931.81;4994264;28;96798;-79
2023/03/25 19:27:24;;;;;;;1.10;0.73;;;;;;;11.25;63.41;99946.53;4999598;28;98018;-79
2023/03/25 19:29:50;;;;;;;1.27;0.60;;;;;;;11.27;63.50;99950.25;5001952;28;97255;-78
2023/03/25 19:32:16;;;;;;;1.20;0.57;;;;;;;11.29;63.23;99936.00;4999728;28;97212;-79
2023/03/25 19:34:45;;;;;;;3.80;0.60;;;;;;;11.30;63.13;99949.25;4998444;28;100111;-78
2023/03/25 19:37:10;;;;;;;1.63;0.87;;;;;;;11.34;63.32;99943.44;4998010;28;97658;-79
2023/03/25 19:39:36;;;;;;;2.40;0.80;;;;;;;11.36;63.35;99962.94;4994789;28;98086;-78
2023/03/25 19:42:03;;;;;;;1.57;1.00;;;;;;;11.38;63.21;99948.69;5003436;28;97399;-79
2023/03/25 19:44:28;;;;;;;0.50;0.50;;;;;;;11.34;63.50;99970.97;4998842;28;97708;-78
2023/03/25 19:46:53;;;;;;;0.70;0.57;;;;;;;11.38;63.19;99985.22;4996324;28;97418;-79
2023/03/25 19:49:19;;;;;;;0.60;0.50;;;;;;;11.37;63.36;99975.47;4996008;28;99817;-78
2023/03/25 19:51:44;;;;;;;0.80;0.70;;;;;;;11.38;63.40;99979.69;4999588;28;97216;-79
2023/03/25 19:54:12;;;;;;;0.60;0.60;;;;;;;11.37;63.53;99969.97;4994750;28;97322;-79
2023/03/25 19:56:41;;;;;;;2.83;1.87;;;;;;;11.36;63.33;99965.72;4999632;28;97584;-79
2023/03/25 19:59:07;;;;;;;5.07;3.83;;;;;;;11.36;63.58;99964.97;4998025;28;96984;-78
2023/03/25 20:01:34;;;;;;;4.80;4.40;;;;;;;11.27;63.61;99975.03;4999300;28;96878;-79
2023/03/25 20:04:00;;;;;;;3.80;3.43;;;;;;;11.28;63.74;99973.03;5002756;28;97083;-79
2023/03/25 20:06:27;;;;;;;2.10;2.00;;;;;;;11.20;63.88;99974.88;5001813;28;101030;-79
2023/03/25 20:08:52;;;;;;;2.50;2.30;;;;;;;11.21;63.78;99979.84;4998815;28;98112;-79
2023/03/25 20:11:18;;;;;;;3.50;2.90;;;;;;;11.23;63.76;99971.81;5001330;28;97274;-79
2023/03/25 20:13:43;;;;;;;2.17;1.97;;;;;;;11.20;63.88;99972.13;4998303;28;99930;-79
2023/03/25 20:16:09;;;;;;;1.70;1.60;;;;;;;11.19;63.93;99982.38;4996533;28;98859;-79
2023/03/25 20:18:35;;;;;;;2.43;2.23;;;;;;;11.16;63.80;99968.91;4999131;28;97194;-79
2023/03/25 20:21:00;;;;;;;2.23;2.13;;;;;;;11.15;64.00;99983.91;4998079;28;96710;-79
2023/03/25 20:23:26;;;;;;;1.90;1.80;;;;;;;11.13;63.91;99989.94;4995825;28;97382;-79
2023/03/25 20:25:51;;;;;;;2.20;2.00;;;;;;;11.12;63.89;99979.41;4995460;28;97785;-79
2023/03/25 20:28:17;;;;;;;2.70;1.90;;;;;;;11.07;63.94;99974.72;4998736;28;97035;-78
2023/03/25 20:30:44;;;;;;;3.50;2.30;;;;;;;11.06;63.90;99984.97;4999523;28;97142;-78
2023/03/25 20:33:09;;;;;;;1.53;1.43;;;;;;;11.00;63.97;99976.03;5002001;28;97074;-79
2023/03/25 20:35:35;;;;;;;2.63;2.43;;;;;;;10.99;64.27;99998.53;5000329;28;99639;-79
2023/03/25 20:38:01;;;;;;;3.67;2.43;;;;;;;10.97;64.06;99985.28;4995753;28;97603;-78
2023/03/25 20:40:27;;;;;;;2.37;2.17;;;;;;;10.98;64.16;99986.78;4998258;28;96768;-78
2023/03/25 20:42:52;;;;;;;2.30;1.40;;;;;;;11.02;64.14;99992.00;4999923;28;97366;-79
2023/03/25 20:45:18;;;;;;;1.87;1.07;;;;;;;11.02;64.20;99992.00;4994522;28;98726;-79
2023/03/25 20:47:44;;;;;;;1.30;1.00;;;;;;;11.04;64.10;99992.25;4997749;27;97219;-79
2023/03/25 20:50:13;;;;;;;1.63;1.00;;;;;;;11.06;64.14;99995.22;4995788;28;97507;-78
2023/03/25 20:52:38;;;;;;;0.97;0.90;;;;;;;11.05;64.22;99991.00;4998895;28;97586;-79
2023/03/25 20:55:04;;;;;;;2.00;1.50;;;;;;;11.07;64.09;99991.22;4995640;28;99144;-79
2023/03/25 20:57:30;;;;;;;4.63;2.80;;;;;;;11.10;63.95;99999.19;4993563;28;98157;-78
2023/03/25 20:59:56;;;;;;;1.90;1.80;;;;;;;11.12;64.04;100004.19;4994137;28;97298;-79
2023/03/25 21:02:22;;;;;;;3.13;1.80;;;;;;;11.12;64.11;99998.69;4994185;28;97226;-78
2023/03/25 21:04:48;;;;;;;2.80;2.53;;;;;;;11.13;63.97;100011.97;4994081;28;99237;-77
2023/03/25 21:07:17;;;;;;;2.23;1.87;;;;;;;11.12;64.10;100017.94;4994661;28;97701;-78
2023/03/25 21:09:42;;;;;;;2.00;1.87;;;;;;;11.12;63.91;100010.44;4997904;28;97858;-78
2023/03/25 21:12:07;;;;;;;1.80;1.70;;;;;;;11.10;64.03;99995.69;4998744;28;97900;-78
2023/03/25 21:14:36;;;;;;;1.80;1.70;;;;;;;11.06;64.23;99996.00;4994384;28;101174;-78
2023/03/25 21:17:01;;;;;;;1.43;1.33;;;;;;;11.02;64.21;99992.75;4996287;28;97745;-79
2023/03/25 21:19:27;;;;;;;1.73;1.40;;;;;;;11.07;64.30;100010.50;4997936;28;97348;-79
2023/03/25 21:21:54;;;;;;;3.73;1.73;;;;;;;11.08;64.29;100007.22;4998725;28;97873;-78
2023/03/25 21:24:21;;;;;;;2.23;1.73;;;;;;;11.09;64.16;100044.53;4993102;28;97022;-80
2023/03/25 21:26:47;;;;;;;3.10;1.30;;;;;;;11.08;64.22;100000.97;4996872;28;100338;-79
2023/03/25 21:29:12;;;;;;;4.50;2.83;;;;;;;11.07;64.47;100008.47;4998275;28;97119;-80
2023/03/25 21:31:38;;;;;;;5.37;3.90;;;;;;;11.07;64.49;99991.22;5004360;28;97072;-79
2023/03/25 21:34:03;;;;;;;3.37;2.20;;;;;;;11.05;64.44;100007.50;4998657;28;100336;-76
2023/03/25 21:36:31;;;;;;;3.60;1.93;;;;;;;11.08;64.44;99998.97;4999174;28;96803;-78
2023/03/25 21:38:58;;;;;;;4.90;2.60;;;;;;;11.08;64.52;100003.72;4996768;28;97425;-77
2023/03/25 21:41:25;;;;;;;4.40;2.73;;;;;;;11.15;64.46;100003.19;5002430;28;99306;-79
2023/03/25 21:43:52;;;;;;;8.10;3.40;;;;;;;11.15;64.66;100017.69;4994386;28;97317;-77
2023/03/25 21:46:22;;;;;;;4.17;2.40;;;;;;;11.17;64.64;99998.66;4996213;28;97371;-79
2023/03/25 21:48:49;;;;;;;4.80;2.10;;;;;;;11.20;64.56;100011.38;4995680;28;96853;-78
2023/03/25 21:51:15;;;;;;;2.50;1.43;;;;;;;11.21;64.51;100015.66;4995093;28;97089;-78